createdAt,value
2023-01-01T00:02:22.436Z,47.23
2023-01-01T00:07:26.005Z,47.20
2023-01-01T00:12:29.557Z,47.16
2023-01-01T00:17:33.096Z,47.29
2023-01-01T00:22:54.376Z,47.22
2023-01-01T00:27:58.888Z,47.19
2023-01-01T00:33:02.428Z,47.20
2023-01-01T00:38:05.959Z,47.31
2023-01-01T00:43:09.522Z,47.38
2023-01-01T00:48:13.030Z,47.57
2023-01-01T00:53:16.633Z,47.61
2023-01-01T00:58:20.164Z,47.69
2023-01-01T01:03:30.590Z,47.66
2023-01-01T01:08:34.392Z,47.66
2023-01-01T01:13:37.965Z,47.78
2023-01-01T01:18:41.770Z,47.81
2023-01-01T01:23:45.347Z,47.89
2023-01-01T01:28:49.987Z,47.95
2023-01-01T01:33:53.718Z,47.86
2023-01-01T01:38:57.241Z,48.11
2023-01-01T01:44:00.724Z,48.00
2023-01-01T01:49:04.419Z,47.88
2023-01-01T01:54:07.919Z,47.84
2023-01-01T01:59:11.415Z,48.25
2023-01-01T02:04:14.954Z,48.42
2023-01-01T02:09:18.497Z,48.57
2023-01-01T02:14:22.099Z,48.68
2023-01-01T02:19:25.646Z,48.84
2023-01-01T02:24:29.153Z,48.59
2023-01-01T02:29:34.700Z,48.64
2023-01-01T02:34:38.249Z,48.48
2023-01-01T02:39:41.808Z,48.51
2023-01-01T02:44:45.340Z,48.61
2023-01-01T02:49:48.948Z,48.54
2023-01-01T02:54:52.466Z,48.52
2023-01-01T03:00:13.981Z,48.63
2023-01-01T03:05:17.538Z,48.74
2023-01-01T03:10:21.124Z,48.85
2023-01-01T03:15:24.699Z,48.88
2023-01-01T03:20:28.381Z,48.73
2023-01-01T03:25:31.951Z,48.96
2023-01-01T03:30:36.744Z,49.00
2023-01-01T03:35:40.407Z,49.00
2023-01-01T03:40:45.393Z,48.97
2023-01-01T03:45:48.878Z,48.69
2023-01-01T03:50:52.503Z,48.77
2023-01-01T03:55:56.015Z,48.84
2023-01-01T04:00:59.565Z,48.74
2023-01-01T04:06:03.243Z,48.84
2023-01-01T04:11:28.570Z,48.85
2023-01-01T04:16:32.192Z,49.03
2023-01-01T04:21:35.847Z,49.06
2023-01-01T04:26:39.492Z,49.19
2023-01-01T04:31:43.023Z,49.12
2023-01-01T04:36:46.575Z,49.28
2023-01-01T04:41:50.124Z,49.12
2023-01-01T04:46:58.435Z,49.18
2023-01-01T04:52:05.441Z,49.12
2023-01-01T04:57:09.894Z,49.45
2023-01-01T05:02:13.594Z,49.37
2023-01-01T05:07:17.383Z,49.22
2023-01-01T05:12:25.199Z,49.24
2023-01-01T05:17:28.722Z,49.06
2023-01-01T05:22:35.091Z,48.96
2023-01-01T05:27:38.747Z,48.99
2023-01-01T05:32:42.461Z,48.95
2023-01-01T05:37:47.245Z,48.90
2023-01-01T05:42:50.796Z,48.86
2023-01-01T05:47:54.312Z,48.82
2023-01-01T05:52:58.068Z,48.82
2023-01-01T05:58:01.616Z,48.93
2023-01-01T06:03:08.008Z,49.01
2023-01-01T06:08:11.567Z,49.09
2023-01-01T06:13:15.163Z,49.13
2023-01-01T06:18:21.625Z,49.19
2023-01-01T06:23:25.164Z,49.14
2023-01-01T06:28:28.736Z,49.14
2023-01-01T06:33:32.268Z,49.10
2023-01-01T06:38:35.762Z,49.22
2023-01-01T06:43:41.782Z,49.19
2023-01-01T06:48:45.376Z,49.33
2023-01-01T06:53:51.779Z,49.33
2023-01-01T06:58:55.344Z,49.20
2023-01-01T07:03:59.049Z,47.74
2023-01-01T07:09:07.300Z,50.01
2023-01-01T07:14:12.414Z,50.22
2023-01-01T07:19:18.078Z,49.78
2023-01-01T07:24:21.619Z,49.89
2023-01-01T07:29:25.164Z,50.16
2023-01-01T07:34:29.987Z,50.12
2023-01-01T07:39:33.530Z,50.26
2023-01-01T07:44:37.040Z,50.35
2023-01-01T07:49:40.546Z,50.48
2023-01-01T07:54:44.031Z,50.46
2023-01-01T07:59:47.694Z,50.69
2023-01-01T08:04:51.157Z,50.83
2023-01-01T08:09:54.672Z,50.95
2023-01-01T08:14:58.185Z,51.78
2023-01-01T08:20:01.656Z,51.92
2023-01-01T08:25:05.161Z,51.33
2023-01-01T08:30:08.674Z,50.92
2023-01-01T08:35:12.192Z,51.39
2023-01-01T08:40:15.720Z,51.34
2023-01-01T08:45:19.226Z,51.73
2023-01-01T08:50:22.701Z,51.08
2023-01-01T08:55:26.176Z,50.81
2023-01-01T09:00:29.719Z,50.77
2023-01-01T09:05:33.403Z,50.91
2023-01-01T09:10:36.907Z,51.19
2023-01-01T09:15:40.494Z,51.13
2023-01-01T09:20:43.993Z,51.26
2023-01-01T09:25:47.476Z,51.24
2023-01-01T09:30:50.975Z,51.23
2023-01-01T09:35:54.458Z,51.35
2023-01-01T09:40:57.946Z,51.22
2023-01-01T09:46:01.577Z,51.01
2023-01-01T09:51:05.321Z,50.36
2023-01-01T09:56:08.853Z,50.86
2023-01-01T10:01:12.428Z,51.80
2023-01-01T10:06:17.151Z,51.55
2023-01-01T10:11:20.800Z,51.55
2023-01-01T10:16:25.361Z,51.55
2023-01-01T10:21:29.105Z,51.86
2023-01-01T10:26:32.608Z,51.69
2023-01-01T10:31:36.192Z,51.10
2023-01-01T10:36:39.769Z,51.47
2023-01-01T10:41:43.266Z,52.20
2023-01-01T10:46:46.847Z,51.58
2023-01-01T10:51:50.360Z,51.61
2023-01-01T10:56:53.961Z,51.63
2023-01-01T11:01:57.568Z,50.29
2023-01-01T11:07:01.194Z,46.47
2023-01-01T11:12:11.933Z,50.03
2023-01-01T11:17:22.894Z,48.23
2023-01-01T11:22:26.511Z,49.45
2023-01-01T11:27:29.977Z,51.67
2023-01-01T11:32:33.507Z,51.07
2023-01-01T11:37:38.876Z,50.49
2023-01-01T11:42:42.359Z,50.14
2023-01-01T11:47:45.920Z,48.87
2023-01-01T11:52:49.401Z,48.50
2023-01-01T11:57:52.878Z,49.82
2023-01-01T12:02:56.509Z,49.76
2023-01-01T12:08:00.253Z,50.26
2023-01-01T12:13:03.849Z,50.06
2023-01-01T12:18:07.439Z,50.34
2023-01-01T12:23:12.971Z,50.25
2023-01-01T12:28:16.486Z,50.57
2023-01-01T12:33:20.015Z,50.72
2023-01-01T12:38:23.511Z,50.54
2023-01-01T12:43:27.064Z,50.64
2023-01-01T12:48:30.567Z,50.14
2023-01-01T12:53:34.098Z,50.31
2023-01-01T12:58:37.561Z,50.00
2023-01-01T13:03:41.219Z,50.27
2023-01-01T13:08:44.862Z,50.50
2023-01-01T13:13:48.364Z,50.71
2023-01-01T13:18:52.753Z,51.76
2023-01-01T13:23:58.898Z,52.52
2023-01-01T13:29:02.723Z,52.37
2023-01-01T13:34:06.216Z,52.62
2023-01-01T13:39:09.746Z,52.26
2023-01-01T13:44:13.317Z,52.37
2023-01-01T13:49:17.077Z,52.28
2023-01-01T13:54:26.357Z,52.47
2023-01-01T13:59:30.352Z,52.29
2023-01-01T14:04:33.856Z,52.83
2023-01-01T14:09:37.400Z,52.16
2023-01-01T14:14:40.970Z,51.33
2023-01-01T14:19:44.528Z,51.02
2023-01-01T14:24:48.055Z,50.97
2023-01-01T14:29:51.518Z,50.91
2023-01-01T14:34:55.009Z,51.45
2023-01-01T14:39:58.543Z,51.24
2023-01-01T14:45:02.080Z,51.90
2023-01-01T14:50:06.193Z,52.17
2023-01-01T14:55:09.699Z,53.23
2023-01-01T15:00:13.228Z,54.22
2023-01-01T15:05:16.703Z,54.54
2023-01-01T15:10:20.175Z,54.06
2023-01-01T15:15:23.716Z,54.25
2023-01-01T15:20:27.229Z,54.59
2023-01-01T15:25:36.103Z,55.47
2023-01-01T15:30:39.746Z,55.64
2023-01-01T15:35:44.046Z,55.81
2023-01-01T15:40:52.949Z,55.04
2023-01-01T15:45:57.406Z,55.52
2023-01-01T15:51:01.002Z,55.26
2023-01-01T15:56:04.492Z,54.65
2023-01-01T16:01:08.093Z,55.52
2023-01-01T16:06:11.790Z,55.39
2023-01-01T16:11:15.538Z,54.92
2023-01-01T16:16:19.198Z,54.86
2023-01-01T16:21:23.775Z,54.47
2023-01-01T16:26:27.399Z,54.26
2023-01-01T16:31:31.070Z,53.74
2023-01-01T16:36:34.625Z,52.92
2023-01-01T16:41:38.140Z,52.95
2023-01-01T16:46:41.746Z,53.06
2023-01-01T16:51:45.314Z,52.31
2023-01-01T16:56:48.857Z,51.70
2023-01-01T17:01:52.462Z,51.66
2023-01-01T17:06:56.253Z,51.24
2023-01-01T17:11:59.957Z,50.33
2023-01-01T17:17:03.634Z,50.61
2023-01-01T17:27:13.254Z,50.46
2023-01-01T17:32:16.732Z,50.81
2023-01-01T17:37:20.237Z,49.78
2023-01-01T17:42:23.865Z,49.80
2023-01-01T17:47:31.015Z,51.37
2023-01-01T17:52:36.598Z,50.94
2023-01-01T17:57:40.705Z,50.79
2023-01-01T18:02:44.394Z,50.72
2023-01-01T18:07:48.765Z,50.59
2023-01-01T18:12:52.317Z,50.32
2023-01-01T18:17:55.926Z,50.16
2023-01-01T18:22:59.464Z,50.29
2023-01-01T18:28:03.702Z,50.33
2023-01-01T18:33:07.297Z,50.25
2023-01-01T18:38:10.961Z,50.09
2023-01-01T18:43:14.734Z,49.96
2023-01-01T18:48:18.499Z,49.79
2023-01-01T18:53:24.286Z,49.76
2023-01-01T18:58:28.119Z,49.70
2023-01-01T19:03:37.468Z,49.71
2023-01-01T19:08:44.627Z,49.28
2023-01-01T19:13:48.342Z,49.49
2023-01-01T19:18:52.076Z,49.46
2023-01-01T19:23:55.634Z,47.50
2023-01-01T19:28:59.902Z,48.85
2023-01-01T19:34:03.653Z,48.91
2023-01-01T19:39:07.478Z,49.06
2023-01-01T19:44:11.606Z,48.93
2023-01-01T19:49:15.432Z,49.07
2023-01-01T19:54:19.259Z,48.56
2023-01-01T19:59:26.383Z,48.76
2023-01-01T20:04:33.238Z,48.63
2023-01-01T20:09:36.882Z,48.88
2023-01-01T20:14:40.388Z,48.77
2023-01-01T20:19:44.110Z,48.84
2023-01-01T20:24:47.834Z,48.99
2023-01-01T20:29:51.479Z,48.42
2023-01-01T20:34:54.991Z,48.35
2023-01-01T20:39:58.566Z,48.67
2023-01-01T20:45:02.157Z,48.54
2023-01-01T20:50:05.646Z,48.68
2023-01-01T20:55:09.146Z,48.95
2023-01-01T21:00:12.712Z,48.88
2023-01-01T21:05:16.343Z,48.72
2023-01-01T21:10:20.554Z,48.54
2023-01-01T21:15:26.171Z,48.72
2023-01-01T21:20:29.646Z,48.70
2023-01-01T21:25:50.842Z,48.36
2023-01-01T21:30:55.128Z,48.46
2023-01-01T21:35:58.628Z,48.23
2023-01-01T21:41:02.138Z,48.39
2023-01-01T21:46:05.868Z,48.13
2023-01-01T21:51:09.565Z,47.99
2023-01-01T21:56:14.169Z,48.18
2023-01-01T22:01:17.808Z,48.17
2023-01-01T22:06:21.447Z,48.28
2023-01-01T22:11:24.931Z,48.32
2023-01-01T22:16:29.104Z,48.02
2023-01-01T22:21:32.699Z,48.01
2023-01-01T22:26:36.229Z,47.96
2023-01-01T22:31:43.971Z,47.89
2023-01-01T22:36:52.407Z,48.06
2023-01-01T22:41:55.963Z,47.79
2023-01-01T22:46:59.506Z,48.00
2023-01-01T22:52:03.061Z,47.99
2023-01-01T22:57:06.617Z,47.46
2023-01-01T23:02:10.178Z,47.71
2023-01-01T23:07:15.218Z,47.75
2023-01-01T23:12:19.116Z,47.29
2023-01-01T23:17:22.653Z,47.06
2023-01-01T23:22:26.730Z,47.11
2023-01-01T23:27:30.302Z,47.18
2023-01-01T23:32:33.815Z,47.04
2023-01-01T23:37:37.535Z,47.02
2023-01-01T23:42:41.069Z,46.98
2023-01-01T23:47:44.550Z,46.99
2023-01-01T23:52:48.093Z,46.99
2023-01-01T23:57:52.174Z,46.93
